createdAt,value
2022-09-18T00:01:55.526Z,6.61
2022-09-18T00:04:25.032Z,6.60
2022-09-18T00:06:56.016Z,6.64
2022-09-18T00:09:25.945Z,6.63
2022-09-18T00:11:56.420Z,6.60
2022-09-18T00:14:25.794Z,6.62
2022-09-18T00:16:55.222Z,6.56
2022-09-18T00:19:24.612Z,6.55
2022-09-18T00:21:55.482Z,6.53
2022-09-18T00:24:24.825Z,6.54
2022-09-18T00:26:54.362Z,6.53
2022-09-18T00:29:23.781Z,6.49
2022-09-18T00:31:53.218Z,6.56
2022-09-18T00:34:22.753Z,6.49
2022-09-18T00:36:52.152Z,6.49
2022-09-18T00:39:23.247Z,6.45
2022-09-18T00:41:52.674Z,6.43
2022-09-18T00:44:40.733Z,6.37
2022-09-18T00:47:27.366Z,6.43
2022-09-18T00:50:06.219Z,6.46
2022-09-18T00:52:48.955Z,6.50
2022-09-18T00:55:25.152Z,6.48
2022-09-18T00:57:59.363Z,6.48
2022-09-18T01:00:31.414Z,6.43
2022-09-18T01:03:01.936Z,6.43
2022-09-18T01:05:50.931Z,6.41
2022-09-18T01:08:43.199Z,6.42
2022-09-18T01:11:37.975Z,6.44
2022-09-18T01:14:26.337Z,6.43
2022-09-18T01:17:08.232Z,6.49
2022-09-18T01:20:34.436Z,6.41
2022-09-18T01:23:40.609Z,6.38
2022-09-18T01:26:32.629Z,6.42
2022-09-18T01:29:12.758Z,6.51
2022-09-18T01:31:52.353Z,6.55
2022-09-18T01:34:31.584Z,6.62
2022-09-18T01:37:13.453Z,6.64
2022-09-18T01:39:59.478Z,6.65
2022-09-18T01:42:31.859Z,6.67
2022-09-18T01:45:09.561Z,6.63
2022-09-18T01:47:50.721Z,6.64
2022-09-18T01:50:20.717Z,6.66
2022-09-18T01:52:59.085Z,6.61
2022-09-18T01:55:32.045Z,6.64
2022-09-18T01:58:07.249Z,6.59
2022-09-18T02:00:43.403Z,6.55
2022-09-18T02:03:19.942Z,6.55
2022-09-18T02:05:55.816Z,6.56
2022-09-18T02:08:32.454Z,6.60
2022-09-18T02:11:10.951Z,6.61
2022-09-18T02:13:46.948Z,6.64
2022-09-18T02:16:27.216Z,6.63
2022-09-18T02:19:02.557Z,6.58
2022-09-18T02:21:33.818Z,6.62
2022-09-18T02:24:10.373Z,6.70
2022-09-18T02:26:41.780Z,6.70
2022-09-18T02:29:14.642Z,6.70
2022-09-18T02:31:46.072Z,6.74
2022-09-18T02:34:16.064Z,6.82
2022-09-18T02:37:03.468Z,6.82
2022-09-18T02:39:56.750Z,6.92
2022-09-18T02:42:43.273Z,6.91
2022-09-18T02:45:27.477Z,6.91
2022-09-18T02:48:24.050Z,6.93
2022-09-18T02:51:08.753Z,6.93
2022-09-18T02:53:47.146Z,7.00
2022-09-18T02:56:25.276Z,6.97
2022-09-18T02:59:00.142Z,7.03
2022-09-18T03:01:30.570Z,7.05
2022-09-18T03:04:06.559Z,7.05
2022-09-18T03:06:50.676Z,7.06
2022-09-18T03:09:20.577Z,7.08
2022-09-18T03:11:50.893Z,7.08
2022-09-18T03:14:22.004Z,7.06
2022-09-18T03:16:51.430Z,7.06
2022-09-18T03:19:22.271Z,7.10
2022-09-18T03:21:52.856Z,7.17
2022-09-18T03:24:25.277Z,7.18
2022-09-18T03:26:55.236Z,7.17
2022-09-18T03:29:26.969Z,7.26
2022-09-18T03:31:57.732Z,7.24
2022-09-18T03:34:28.603Z,7.25
2022-09-18T03:36:58.062Z,7.23
2022-09-18T03:39:27.430Z,7.19
2022-09-18T03:41:56.820Z,7.20
2022-09-18T03:44:26.630Z,7.11
2022-09-18T03:46:58.095Z,7.04
2022-09-18T03:49:28.912Z,7.02
2022-09-18T03:51:58.282Z,7.09
2022-09-18T03:54:31.108Z,7.10
2022-09-18T03:57:16.491Z,7.08
2022-09-18T04:00:05.882Z,7.08
2022-09-18T04:02:51.822Z,7.07
2022-09-18T04:05:41.134Z,7.07
2022-09-18T04:08:28.917Z,7.04
2022-09-18T04:11:13.080Z,7.09
2022-09-18T04:13:42.486Z,7.14
2022-09-18T04:16:15.221Z,7.16
2022-09-18T04:18:44.627Z,7.17
2022-09-18T04:21:15.422Z,7.18
2022-09-18T04:23:44.849Z,7.25
2022-09-18T04:26:16.090Z,7.23
2022-09-18T04:28:52.166Z,7.28
2022-09-18T04:31:21.934Z,7.37
2022-09-18T04:33:51.547Z,7.28
2022-09-18T04:36:26.173Z,7.27
2022-09-18T04:38:55.619Z,7.30
2022-09-18T04:41:25.129Z,7.31
2022-09-18T04:43:54.525Z,7.33
2022-09-18T04:46:24.000Z,7.35
2022-09-18T04:48:54.985Z,7.37
2022-09-18T04:51:29.057Z,7.31
2022-09-18T04:53:58.565Z,7.31
2022-09-18T04:56:28.233Z,7.30
2022-09-18T04:59:00.763Z,7.30
2022-09-18T05:01:30.685Z,7.30
2022-09-18T05:04:02.835Z,7.29
2022-09-18T05:06:45.065Z,7.27
2022-09-18T05:09:14.545Z,7.27
2022-09-18T05:11:44.393Z,7.33
2022-09-18T05:14:13.853Z,7.31
2022-09-18T05:16:47.035Z,7.39
2022-09-18T05:19:39.048Z,7.43
2022-09-18T05:22:16.010Z,7.43
2022-09-18T05:24:50.648Z,7.48
2022-09-18T05:27:24.732Z,7.45
2022-09-18T05:29:56.802Z,7.58
2022-09-18T05:32:34.182Z,7.57
2022-09-18T05:35:03.678Z,7.54
2022-09-18T05:37:34.461Z,7.57
2022-09-18T05:40:05.536Z,7.60
2022-09-18T05:42:35.316Z,7.63
2022-09-18T05:45:07.498Z,7.58
2022-09-18T05:47:36.900Z,7.59
2022-09-18T05:50:09.065Z,7.66
2022-09-18T05:52:39.954Z,7.71
2022-09-18T05:55:10.904Z,7.69
2022-09-18T05:57:43.111Z,7.76
2022-09-18T06:00:15.732Z,7.72
2022-09-18T06:02:55.991Z,7.76
2022-09-18T06:05:27.050Z,7.78
2022-09-18T06:08:00.088Z,7.88
2022-09-18T06:10:31.113Z,7.88
2022-09-18T06:13:04.219Z,7.91
2022-09-18T06:15:34.281Z,7.86
2022-09-18T06:18:04.478Z,7.88
2022-09-18T06:20:36.025Z,7.89
2022-09-18T06:23:07.579Z,7.86
2022-09-18T06:26:02.408Z,7.86
2022-09-18T06:28:34.133Z,7.91
2022-09-18T06:31:06.203Z,7.87
2022-09-18T06:34:04.853Z,7.82
2022-09-18T06:36:34.396Z,7.87
2022-09-18T06:39:24.201Z,7.84
2022-09-18T06:42:00.240Z,7.81
2022-09-18T06:44:48.088Z,7.82
2022-09-18T06:47:18.922Z,7.81
2022-09-18T06:49:49.766Z,7.86
2022-09-18T06:52:20.058Z,7.78
2022-09-18T06:54:51.132Z,7.82
2022-09-18T06:57:35.233Z,7.78
2022-09-18T07:00:05.969Z,7.81
2022-09-18T07:02:39.947Z,7.78
2022-09-18T07:05:32.257Z,7.80
2022-09-18T07:08:02.168Z,7.86
2022-09-18T07:10:37.574Z,7.90
2022-09-18T07:13:07.197Z,7.94
2022-09-18T07:15:47.216Z,7.99
2022-09-18T07:18:16.965Z,8.03
2022-09-18T07:20:46.401Z,8.02
2022-09-18T07:23:26.384Z,8.02
2022-09-18T07:26:00.418Z,8.06
2022-09-18T07:28:29.980Z,8.06
2022-09-18T07:31:07.687Z,8.04
2022-09-18T07:33:38.241Z,8.06
2022-09-18T07:36:08.104Z,8.08
2022-09-18T07:38:39.344Z,8.13
2022-09-18T07:41:10.489Z,8.11
2022-09-18T07:43:45.112Z,8.14
2022-09-18T07:46:14.648Z,8.26
2022-09-18T07:48:44.180Z,8.24
2022-09-18T07:51:21.917Z,8.28
2022-09-18T07:53:55.321Z,8.28
2022-09-18T07:56:41.580Z,8.25
2022-09-18T07:59:13.178Z,8.25
2022-09-18T08:01:42.661Z,8.23
2022-09-18T08:04:13.696Z,8.31
2022-09-18T08:07:03.849Z,8.31
2022-09-18T08:09:51.796Z,8.31
2022-09-18T08:12:35.761Z,8.40
2022-09-18T08:15:44.852Z,8.43
2022-09-18T08:18:33.013Z,8.46
2022-09-18T08:21:13.259Z,8.49
2022-09-18T08:23:46.278Z,8.53
2022-09-18T08:26:21.433Z,8.52
2022-09-18T08:28:53.978Z,8.48
2022-09-18T08:31:24.281Z,8.53
2022-09-18T08:33:57.921Z,8.53
2022-09-18T08:36:28.109Z,8.60
2022-09-18T08:39:06.712Z,8.63
2022-09-18T08:42:25.995Z,8.68
2022-09-18T08:45:05.486Z,8.78
2022-09-18T08:47:48.712Z,8.86
2022-09-18T08:50:24.943Z,8.91
2022-09-18T08:53:04.308Z,9.08
2022-09-18T08:56:01.211Z,9.19
2022-09-18T08:58:54.094Z,9.28
2022-09-18T09:01:37.216Z,9.36
2022-09-18T09:04:20.230Z,9.40
2022-09-18T09:07:07.593Z,9.38
2022-09-18T09:10:07.092Z,9.40
2022-09-18T09:12:52.650Z,9.47
2022-09-18T09:15:38.365Z,9.43
2022-09-18T09:18:24.454Z,9.44
2022-09-18T09:20:56.152Z,9.48
2022-09-18T09:23:51.728Z,9.43
2022-09-18T09:26:48.654Z,9.55
2022-09-18T09:29:41.385Z,9.55
2022-09-18T09:32:47.693Z,9.62
2022-09-18T09:35:47.934Z,9.62
2022-09-18T09:38:47.952Z,9.63
2022-09-18T09:41:31.744Z,9.64
2022-09-18T09:44:25.194Z,9.59
2022-09-18T09:47:09.275Z,9.68
2022-09-18T09:49:52.599Z,9.68
2022-09-18T09:52:26.831Z,9.70
2022-09-18T09:55:23.037Z,9.73
2022-09-18T09:58:12.698Z,9.82
2022-09-18T10:00:53.238Z,9.81
2022-09-18T10:03:59.797Z,9.93
2022-09-18T10:06:46.712Z,10.05
2022-09-18T10:09:34.694Z,10.10
2022-09-18T10:12:19.801Z,10.21
2022-09-18T10:14:56.715Z,10.33
2022-09-18T10:17:29.482Z,10.46
2022-09-18T10:19:59.205Z,10.63
2022-09-18T10:22:29.853Z,10.73
2022-09-18T10:25:10.815Z,10.81
2022-09-18T10:27:40.323Z,10.79
2022-09-18T10:30:15.167Z,10.70
2022-09-18T10:32:50.618Z,10.76
2022-09-18T10:35:50.057Z,10.74
2022-09-18T10:38:37.656Z,10.75
2022-09-18T10:41:36.817Z,10.67
2022-09-18T10:44:26.816Z,10.52
2022-09-18T10:47:09.846Z,10.39
2022-09-18T10:49:52.908Z,10.37
2022-09-18T10:52:36.015Z,10.32
2022-09-18T10:55:20.809Z,10.31
2022-09-18T10:58:15.354Z,10.45
2022-09-18T11:00:57.350Z,10.40
2022-09-18T11:03:43.684Z,10.36
2022-09-18T11:06:24.191Z,10.52
2022-09-18T11:08:58.146Z,10.58
2022-09-18T11:11:32.336Z,10.65
2022-09-18T11:14:20.737Z,10.79
2022-09-18T11:17:05.036Z,10.86
2022-09-18T11:19:40.630Z,10.86
2022-09-18T11:22:41.427Z,10.84
2022-09-18T11:25:37.249Z,10.78
2022-09-18T11:28:28.189Z,10.73
2022-09-18T11:31:07.849Z,10.65
2022-09-18T11:33:45.772Z,10.63
2022-09-18T11:36:25.379Z,10.58
2022-09-18T11:38:57.109Z,10.64
2022-09-18T11:41:35.417Z,10.71
2022-09-18T11:44:16.730Z,10.79
2022-09-18T11:47:12.755Z,10.89
2022-09-18T11:49:48.125Z,11.02
2022-09-18T11:52:27.149Z,11.16
2022-09-18T11:55:13.295Z,11.26
2022-09-18T11:57:49.871Z,11.22
2022-09-18T12:00:23.767Z,11.24
2022-09-18T12:03:16.234Z,11.14
2022-09-18T12:05:57.711Z,11.07
2022-09-18T12:08:44.249Z,11.04
2022-09-18T12:11:26.422Z,11.02
2022-09-18T12:14:12.718Z,10.95
2022-09-18T12:16:52.867Z,11.02
2022-09-18T12:19:36.872Z,11.18
2022-09-18T12:22:17.732Z,11.27
2022-09-18T12:24:49.083Z,11.40
2022-09-18T12:27:42.528Z,11.44
2022-09-18T12:30:18.720Z,11.37
2022-09-18T12:33:13.438Z,11.26
2022-09-18T12:36:47.570Z,11.13
2022-09-18T12:39:49.028Z,10.82
2022-09-18T12:42:38.370Z,10.69
2022-09-18T12:46:17.090Z,10.56
2022-09-18T12:49:14.229Z,10.58
2022-09-18T12:51:49.869Z,10.71
2022-09-18T12:55:00.692Z,10.91
2022-09-18T12:57:53.016Z,11.07
2022-09-18T13:00:23.323Z,11.17
2022-09-18T13:02:59.307Z,11.29
2022-09-18T13:05:34.645Z,11.45
2022-09-18T13:08:13.564Z,11.57
2022-09-18T13:10:46.136Z,11.61
2022-09-18T13:13:25.526Z,11.67
2022-09-18T13:16:02.794Z,11.82
2022-09-18T13:18:40.715Z,11.99
2022-09-18T13:21:25.224Z,12.08
2022-09-18T13:23:58.355Z,12.24
2022-09-18T13:26:31.793Z,12.35
2022-09-18T13:29:01.830Z,12.47
2022-09-18T13:31:32.874Z,12.50
2022-09-18T13:34:05.951Z,12.56
2022-09-18T13:36:37.182Z,12.56
2022-09-18T13:39:19.930Z,12.69
2022-09-18T13:41:54.148Z,12.88
2022-09-18T13:44:27.288Z,12.86
2022-09-18T13:46:58.716Z,12.93
2022-09-18T13:49:32.692Z,12.99
2022-09-18T13:52:43.380Z,13.01
2022-09-18T13:55:49.332Z,12.75
2022-09-18T13:58:54.549Z,12.71
2022-09-18T14:02:02.464Z,12.55
2022-09-18T14:05:29.609Z,12.46
2022-09-18T14:08:38.420Z,12.30
2022-09-18T14:11:15.299Z,12.26
2022-09-18T14:13:53.991Z,12.31
2022-09-18T14:16:40.696Z,12.30
2022-09-18T14:19:33.768Z,12.30
2022-09-18T14:22:04.004Z,12.30
2022-09-18T14:25:00.101Z,12.34
2022-09-18T14:27:48.792Z,12.32
2022-09-18T14:30:25.355Z,12.31
2022-09-18T14:33:18.698Z,12.36
2022-09-18T14:36:01.610Z,12.36
2022-09-18T14:38:36.698Z,12.34
2022-09-18T14:41:23.244Z,12.31
2022-09-18T14:44:00.295Z,12.32
2022-09-18T14:46:32.888Z,12.41
2022-09-18T14:49:03.115Z,12.32
2022-09-18T14:51:49.425Z,12.30
2022-09-18T14:54:28.987Z,12.23
2022-09-18T14:57:02.910Z,12.26
2022-09-18T14:59:35.585Z,12.23
2022-09-18T15:02:26.703Z,12.09
2022-09-18T15:04:58.014Z,12.02
2022-09-18T15:07:28.149Z,11.90
2022-09-18T15:10:02.569Z,11.82
2022-09-18T15:12:34.684Z,11.80
2022-09-18T15:15:33.064Z,11.80
2022-09-18T15:18:04.795Z,11.81
2022-09-18T15:20:34.516Z,11.73
2022-09-18T15:23:26.821Z,11.71
2022-09-18T15:26:01.387Z,11.64
2022-09-18T15:28:34.906Z,11.61
2022-09-18T15:31:10.598Z,11.56
2022-09-18T15:33:50.305Z,11.60
2022-09-18T15:36:30.110Z,11.57
2022-09-18T15:39:01.173Z,11.47
2022-09-18T15:41:45.481Z,11.40
2022-09-18T15:45:21.736Z,11.35
2022-09-18T15:47:53.406Z,11.32
2022-09-18T15:50:43.100Z,11.33
2022-09-18T15:53:30.634Z,11.28
2022-09-18T15:56:09.017Z,11.25
2022-09-18T15:58:58.948Z,11.20
2022-09-18T16:01:35.374Z,11.19
2022-09-18T16:04:21.145Z,11.13
2022-09-18T16:07:01.440Z,11.08
2022-09-18T16:09:41.307Z,11.08
2022-09-18T16:12:40.792Z,11.04
2022-09-18T16:15:23.429Z,11.03
2022-09-18T16:18:25.426Z,11.08
2022-09-18T16:21:05.341Z,11.01
2022-09-18T16:23:37.699Z,10.97
2022-09-18T16:26:13.020Z,10.93
2022-09-18T16:28:46.085Z,10.88
2022-09-18T16:31:19.048Z,10.84
2022-09-18T16:33:55.267Z,10.86
2022-09-18T16:36:32.862Z,10.80
2022-09-18T16:39:07.755Z,10.78
2022-09-18T16:41:37.673Z,10.74
2022-09-18T16:44:10.861Z,10.70
2022-09-18T16:46:45.225Z,10.65
2022-09-18T16:49:19.472Z,10.64
2022-09-18T16:51:50.361Z,10.61
2022-09-18T16:54:19.840Z,10.60
2022-09-18T16:56:54.739Z,10.59
2022-09-18T16:59:29.315Z,10.53
2022-09-18T17:02:04.503Z,10.50
2022-09-18T17:04:35.528Z,10.46
2022-09-18T17:07:07.341Z,10.42
2022-09-18T17:09:37.070Z,10.42
2022-09-18T17:12:07.234Z,10.39
2022-09-18T17:14:36.785Z,10.38
2022-09-18T17:17:06.457Z,10.38
2022-09-18T17:19:36.790Z,10.36
2022-09-18T17:22:07.895Z,10.34
2022-09-18T17:24:37.673Z,10.31
2022-09-18T17:27:07.393Z,10.33
2022-09-18T17:29:36.761Z,10.33
2022-09-18T17:32:07.600Z,10.30
2022-09-18T17:34:37.101Z,10.28
2022-09-18T17:37:07.936Z,10.24
2022-09-18T17:39:37.637Z,10.20
2022-09-18T17:42:07.369Z,10.19
2022-09-18T17:44:37.144Z,10.22
2022-09-18T17:47:08.062Z,10.22
2022-09-18T17:49:37.560Z,10.19
2022-09-18T17:52:08.576Z,10.15
2022-09-18T17:54:38.616Z,10.18
2022-09-18T17:57:11.527Z,10.13
2022-09-18T17:59:45.026Z,10.13
2022-09-18T18:02:14.974Z,10.06
2022-09-18T18:04:44.517Z,10.06
2022-09-18T18:07:16.212Z,10.02
2022-09-18T18:09:45.622Z,9.99
2022-09-18T18:12:15.257Z,9.96
2022-09-18T18:14:44.911Z,9.97
2022-09-18T18:17:14.537Z,9.95
2022-09-18T18:19:43.977Z,9.97
2022-09-18T18:22:14.750Z,9.94
2022-09-18T18:24:44.466Z,9.97
2022-09-18T18:27:13.880Z,9.95
2022-09-18T18:29:43.457Z,9.91
2022-09-18T18:32:13.743Z,9.89
2022-09-18T18:34:43.128Z,9.91
2022-09-18T18:37:14.592Z,9.87
2022-09-18T18:39:44.161Z,9.80
2022-09-18T18:42:13.774Z,9.82
2022-09-18T18:44:43.749Z,9.81
2022-09-18T18:47:13.510Z,9.83
2022-09-18T18:49:42.930Z,9.84
2022-09-18T18:52:13.745Z,9.89
2022-09-18T18:54:43.384Z,9.97
2022-09-18T18:57:13.036Z,9.86
2022-09-18T18:59:43.862Z,9.83
2022-09-18T19:02:13.322Z,9.77
2022-09-18T19:04:43.575Z,9.80
2022-09-18T19:07:14.358Z,9.75
2022-09-18T19:09:43.772Z,9.75
2022-09-18T19:12:13.307Z,9.69
2022-09-18T19:14:42.964Z,9.67
2022-09-18T19:17:13.926Z,9.68
2022-09-18T19:19:43.385Z,9.64
2022-09-18T19:22:17.765Z,9.65
2022-09-18T19:24:47.241Z,9.67
2022-09-18T19:27:16.667Z,9.63
2022-09-18T19:29:46.281Z,9.69
2022-09-18T19:32:17.608Z,9.69
2022-09-18T19:34:47.017Z,9.67
2022-09-18T19:37:18.394Z,9.77
2022-09-18T19:39:50.346Z,9.74
2022-09-18T19:42:20.282Z,9.69
2022-09-18T19:44:53.347Z,9.67
2022-09-18T19:47:28.548Z,9.63
2022-09-18T19:49:59.807Z,9.73
2022-09-18T19:52:30.941Z,9.71
2022-09-18T19:55:00.948Z,9.71
2022-09-18T19:57:30.525Z,9.72
2022-09-18T20:00:01.098Z,9.73
2022-09-18T20:02:30.493Z,9.71
2022-09-18T20:04:59.883Z,9.78
2022-09-18T20:07:31.025Z,9.82
2022-09-18T20:10:00.399Z,9.83
2022-09-18T20:12:33.619Z,9.87
2022-09-18T20:15:05.546Z,9.78
2022-09-18T20:17:35.090Z,9.78
2022-09-18T20:20:08.827Z,9.84
2022-09-18T20:22:40.732Z,9.83
2022-09-18T20:25:11.730Z,9.92
2022-09-18T20:27:43.657Z,9.90
2022-09-18T20:30:13.798Z,9.87
2022-09-18T20:32:43.261Z,9.82
2022-09-18T20:35:12.815Z,9.88
2022-09-18T20:37:44.353Z,9.95
2022-09-18T20:40:14.304Z,9.93
2022-09-18T20:42:43.810Z,9.95
2022-09-18T20:45:13.353Z,9.89
2022-09-18T20:47:43.137Z,10.02
2022-09-18T20:50:14.902Z,10.11
2022-09-18T20:52:46.099Z,10.03
2022-09-18T20:55:18.174Z,9.93
2022-09-18T20:57:47.832Z,9.97
2022-09-18T21:00:18.056Z,9.94
2022-09-18T21:02:53.291Z,9.98
2022-09-18T21:05:22.684Z,10.03
2022-09-18T21:08:03.073Z,10.12
2022-09-18T21:10:32.589Z,10.15
2022-09-18T21:13:01.991Z,10.21
2022-09-18T21:15:31.982Z,10.13
2022-09-18T21:18:01.413Z,10.19
2022-09-18T21:20:31.362Z,10.13
2022-09-18T21:23:19.699Z,10.10
2022-09-18T21:25:49.304Z,10.09
2022-09-18T21:28:18.665Z,10.12
2022-09-18T21:30:48.113Z,10.05
2022-09-18T21:33:18.110Z,10.03
2022-09-18T21:35:52.949Z,9.87
2022-09-18T21:38:23.703Z,9.83
2022-09-18T21:40:54.530Z,9.68
2022-09-18T21:43:23.924Z,9.63
2022-09-18T21:45:53.327Z,9.56
2022-09-18T21:48:23.841Z,9.53
2022-09-18T21:50:53.323Z,9.42
2022-09-18T21:53:24.064Z,9.45
2022-09-18T21:55:53.454Z,9.33
2022-09-18T21:58:22.792Z,9.22
2022-09-18T22:00:52.192Z,9.16
2022-09-18T22:03:21.736Z,9.08
2022-09-18T22:05:52.453Z,9.08
2022-09-18T22:08:23.188Z,8.91
2022-09-18T22:10:52.613Z,8.89
2022-09-18T22:13:22.136Z,8.86
2022-09-18T22:15:56.857Z,8.67
2022-09-18T22:18:26.498Z,8.57
2022-09-18T22:20:57.166Z,8.52
2022-09-18T22:23:27.951Z,8.53
2022-09-18T22:26:01.272Z,8.46
2022-09-18T22:28:31.388Z,8.41
2022-09-18T22:31:05.054Z,8.38
2022-09-18T22:33:34.547Z,8.41
2022-09-18T22:36:06.024Z,8.45
2022-09-18T22:38:36.750Z,8.43
2022-09-18T22:41:08.570Z,8.38
2022-09-18T22:43:38.412Z,8.37
2022-09-18T22:46:11.740Z,8.37
2022-09-18T22:48:41.885Z,8.33
2022-09-18T22:51:14.680Z,8.37
2022-09-18T22:53:51.295Z,8.31
2022-09-18T22:56:24.376Z,8.37
2022-09-18T22:58:55.605Z,8.44
2022-09-18T23:01:30.380Z,8.42
2022-09-18T23:04:03.139Z,8.36
2022-09-18T23:06:34.724Z,8.33
2022-09-18T23:09:06.648Z,8.38
2022-09-18T23:11:36.871Z,8.37
2022-09-18T23:14:09.449Z,8.35
2022-09-18T23:16:39.374Z,8.34
2022-09-18T23:19:17.645Z,8.37
2022-09-18T23:21:47.119Z,8.36
2022-09-18T23:24:18.279Z,8.36
2022-09-18T23:26:50.556Z,8.43
2022-09-18T23:29:23.383Z,8.43
2022-09-18T23:31:55.891Z,8.46
2022-09-18T23:34:30.393Z,8.40
2022-09-18T23:37:01.667Z,8.39
2022-09-18T23:39:34.994Z,8.30
2022-09-18T23:42:06.269Z,8.29
2022-09-18T23:44:35.880Z,8.28
2022-09-18T23:47:05.497Z,8.26
2022-09-18T23:49:35.151Z,8.22
2022-09-18T23:52:05.003Z,8.23
2022-09-18T23:54:35.763Z,8.34
2022-09-18T23:57:05.461Z,8.32
2022-09-18T23:59:35.417Z,8.31
